createdAt,value
2022-11-27T00:01:13.085Z,7.13
2022-11-27T00:04:01.315Z,7.17
2022-11-27T00:06:49.152Z,6.90
2022-11-27T00:09:36.378Z,6.40
2022-11-27T00:12:24.287Z,7.63
2022-11-27T00:15:16.960Z,6.97
2022-11-27T00:18:05.624Z,6.73
2022-11-27T00:20:53.295Z,6.17
2022-11-27T00:23:42.141Z,5.47
2022-11-27T00:26:35.929Z,4.60
2022-11-27T00:29:28.989Z,5.50
2022-11-27T00:32:16.922Z,5.60
2022-11-27T00:35:06.177Z,5.43
2022-11-27T00:37:53.604Z,4.93
2022-11-27T00:40:41.532Z,5.03
2022-11-27T00:43:29.439Z,6.30
2022-11-27T00:46:17.498Z,4.30
2022-11-27T00:49:06.392Z,4.80
2022-11-27T00:51:53.799Z,4.40
2022-11-27T00:54:41.217Z,5.17
2022-11-27T00:57:28.729Z,5.53
2022-11-27T01:00:16.287Z,5.77
2022-11-27T01:03:04.243Z,4.70
2022-11-27T01:05:51.611Z,5.57
2022-11-27T01:08:39.733Z,5.33
2022-11-27T01:11:28.907Z,4.67
2022-11-27T01:14:18.320Z,6.00
2022-11-27T01:17:05.595Z,5.73
2022-11-27T01:19:53.483Z,6.23
2022-11-27T01:22:40.920Z,5.13
2022-11-27T01:25:28.602Z,5.27
2022-11-27T01:28:16.208Z,6.20
2022-11-27T01:31:08.580Z,5.57
2022-11-27T01:33:57.168Z,5.30
2022-11-27T01:36:45.359Z,7.23
2022-11-27T01:39:32.774Z,5.23
2022-11-27T01:42:20.528Z,5.60
2022-11-27T01:45:10.818Z,5.63
2022-11-27T01:48:02.563Z,6.07
2022-11-27T01:50:50.462Z,5.23
2022-11-27T01:53:37.908Z,5.43
2022-11-27T01:56:26.953Z,6.37
2022-11-27T01:59:15.849Z,5.93
2022-11-27T02:02:04.327Z,6.30
2022-11-27T02:04:51.759Z,6.87
2022-11-27T02:07:39.832Z,7.30
2022-11-27T02:10:34.464Z,6.03
2022-11-27T02:13:31.587Z,6.57
2022-11-27T02:16:25.998Z,6.37
2022-11-27T02:19:27.410Z,5.47
2022-11-27T02:22:15.313Z,5.13
2022-11-27T02:25:14.341Z,6.30
2022-11-27T02:28:20.475Z,6.30
2022-11-27T02:31:15.011Z,5.53
2022-11-27T02:34:12.032Z,6.07
2022-11-27T02:37:02.011Z,6.07
2022-11-27T02:39:49.893Z,6.00
2022-11-27T02:42:41.658Z,6.03
2022-11-27T02:45:32.780Z,6.27
2022-11-27T02:48:24.145Z,5.87
2022-11-27T02:51:11.944Z,5.20
2022-11-27T02:54:02.763Z,5.87
2022-11-27T02:56:51.626Z,5.90
2022-11-27T02:59:39.689Z,6.13
2022-11-27T03:02:31.262Z,5.60
2022-11-27T03:05:20.546Z,6.10
2022-11-27T03:08:29.202Z,5.70
2022-11-27T03:11:17.381Z,5.13
2022-11-27T03:14:07.475Z,5.43
2022-11-27T03:17:04.413Z,5.07
2022-11-27T03:20:01.272Z,4.70
2022-11-27T03:22:48.739Z,5.33
2022-11-27T03:25:36.694Z,4.50
2022-11-27T03:28:23.961Z,5.00
2022-11-27T03:31:11.883Z,4.67
2022-11-27T03:33:59.925Z,5.43
2022-11-27T03:36:47.409Z,4.87
2022-11-27T03:39:35.503Z,4.43
2022-11-27T03:42:30.011Z,4.83
2022-11-27T03:45:39.616Z,3.87
2022-11-27T03:48:36.568Z,3.90
2022-11-27T03:51:31.259Z,4.33
2022-11-27T03:54:32.034Z,4.17
2022-11-27T03:57:42.800Z,3.73
2022-11-27T04:00:38.411Z,3.87
2022-11-27T04:03:28.414Z,4.23
2022-11-27T04:06:15.908Z,3.57
2022-11-27T04:09:04.072Z,3.50
2022-11-27T04:11:51.991Z,3.87
2022-11-27T04:14:39.546Z,3.60
2022-11-27T04:17:27.895Z,3.43
2022-11-27T04:20:15.966Z,3.60
2022-11-27T04:23:03.863Z,3.57
2022-11-27T04:25:51.415Z,3.30
2022-11-27T04:28:38.982Z,3.10
2022-11-27T04:31:26.718Z,3.90
2022-11-27T04:34:14.171Z,3.37
2022-11-27T04:37:02.095Z,3.43
2022-11-27T04:39:49.514Z,3.73
2022-11-27T04:42:36.960Z,3.63
2022-11-27T04:45:24.669Z,3.33
2022-11-27T04:48:12.075Z,3.37
2022-11-27T04:50:59.964Z,3.47
2022-11-27T04:53:47.420Z,3.40
2022-11-27T04:56:34.875Z,3.20
2022-11-27T04:59:23.607Z,2.97
2022-11-27T05:02:11.540Z,2.70
2022-11-27T05:04:59.073Z,2.63
2022-11-27T05:07:46.821Z,2.53
2022-11-27T05:10:34.256Z,2.87
2022-11-27T05:13:22.155Z,2.67
2022-11-27T05:16:11.112Z,2.73
2022-11-27T05:18:59.038Z,3.53
2022-11-27T05:21:47.680Z,3.57
2022-11-27T05:24:35.582Z,2.87
2022-11-27T05:27:22.986Z,2.80
2022-11-27T05:30:11.147Z,2.87
2022-11-27T05:32:58.626Z,2.73
2022-11-27T05:35:46.306Z,3.40
2022-11-27T05:38:34.253Z,3.17
2022-11-27T05:41:21.690Z,2.50
2022-11-27T05:44:11.706Z,2.97
2022-11-27T05:46:59.728Z,3.20
2022-11-27T05:49:47.175Z,3.27
2022-11-27T05:52:35.091Z,2.93
2022-11-27T05:55:22.991Z,2.83
2022-11-27T05:58:10.210Z,3.07
2022-11-27T06:00:58.343Z,3.13
2022-11-27T06:03:46.447Z,2.80
2022-11-27T06:06:33.842Z,3.10
2022-11-27T06:09:21.292Z,2.33
2022-11-27T06:12:09.245Z,2.87
2022-11-27T06:14:56.654Z,2.50
2022-11-27T06:17:44.556Z,2.53
2022-11-27T06:20:32.486Z,2.70
2022-11-27T06:23:20.369Z,2.67
2022-11-27T06:26:21.574Z,2.40
2022-11-27T06:29:10.491Z,2.50
2022-11-27T06:31:58.471Z,2.57
2022-11-27T06:34:46.398Z,2.80
2022-11-27T06:37:33.819Z,2.40
2022-11-27T06:40:21.710Z,2.73
2022-11-27T06:43:08.930Z,2.47
2022-11-27T06:45:57.661Z,2.30
2022-11-27T06:48:45.894Z,2.57
2022-11-27T06:51:34.126Z,2.77
2022-11-27T06:54:21.541Z,2.83
2022-11-27T06:57:09.498Z,3.57
2022-11-27T06:59:56.897Z,4.23
2022-11-27T07:02:44.791Z,7.77
2022-11-27T07:05:32.432Z,10.40
2022-11-27T07:08:20.387Z,11.13
2022-11-27T07:11:15.779Z,12.23
2022-11-27T07:14:04.338Z,5.43
2022-11-27T07:16:51.870Z,4.27
2022-11-27T07:19:39.307Z,3.70
2022-11-27T07:22:26.779Z,2.97
2022-11-27T07:25:14.725Z,2.50
2022-11-27T07:28:02.203Z,2.20
2022-11-27T07:30:56.749Z,2.73
2022-11-27T07:33:44.358Z,2.40
2022-11-27T07:36:31.969Z,3.00
2022-11-27T07:39:28.739Z,3.30
2022-11-27T07:42:44.217Z,2.93
2022-11-27T07:45:31.653Z,4.03
2022-11-27T07:48:19.588Z,4.17
2022-11-27T07:51:07.641Z,5.73
2022-11-27T07:53:55.576Z,5.53
2022-11-27T07:56:43.017Z,5.43
2022-11-27T07:59:30.927Z,4.10
2022-11-27T08:02:18.322Z,4.23
2022-11-27T08:05:12.062Z,3.90
2022-11-27T08:08:01.446Z,3.30
2022-11-27T08:10:49.065Z,2.80
2022-11-27T08:13:36.486Z,2.53
2022-11-27T08:16:24.769Z,2.60
2022-11-27T08:19:12.303Z,2.60
2022-11-27T08:22:00.253Z,2.97
2022-11-27T08:24:48.135Z,3.00
2022-11-27T08:27:36.797Z,2.90
2022-11-27T08:30:24.198Z,2.70
2022-11-27T08:33:03.457Z,2.70
2022-11-27T08:35:51.503Z,2.57
2022-11-27T08:38:38.843Z,3.00
2022-11-27T08:41:26.127Z,2.77
2022-11-27T08:44:13.735Z,2.93
2022-11-27T08:47:01.020Z,2.60
2022-11-27T08:49:48.503Z,3.00
2022-11-27T08:52:36.335Z,2.83
2022-11-27T08:55:23.696Z,3.13
2022-11-27T08:58:11.071Z,2.80
2022-11-27T09:00:59.028Z,3.10
2022-11-27T09:03:46.766Z,2.80
2022-11-27T09:06:38.164Z,3.00
2022-11-27T09:09:25.617Z,2.87
2022-11-27T09:12:14.131Z,2.90
2022-11-27T09:15:01.986Z,2.37
2022-11-27T09:17:49.461Z,2.50
2022-11-27T09:20:36.750Z,2.60
2022-11-27T09:23:24.126Z,2.60
2022-11-27T09:26:12.606Z,3.30
2022-11-27T09:29:00.111Z,2.70
2022-11-27T09:31:47.961Z,2.63
2022-11-27T09:34:37.559Z,2.40
2022-11-27T09:37:25.162Z,2.70
2022-11-27T09:40:17.999Z,2.60
2022-11-27T09:43:09.900Z,2.30
2022-11-27T09:46:01.388Z,2.27
2022-11-27T09:48:50.556Z,2.30
2022-11-27T09:51:40.181Z,3.00
2022-11-27T09:54:31.178Z,2.90
2022-11-27T09:57:23.555Z,2.10
2022-11-27T10:00:16.866Z,2.00
2022-11-27T10:03:04.904Z,1.83
2022-11-27T10:06:11.198Z,2.15
2022-11-27T10:08:58.619Z,2.37
2022-11-27T10:11:49.078Z,2.10
2022-11-27T10:14:36.584Z,2.40
2022-11-27T10:17:31.564Z,2.40
2022-11-27T10:20:19.008Z,2.55
2022-11-27T10:23:26.569Z,2.10
2022-11-27T10:26:19.156Z,2.20
2022-11-27T10:29:25.642Z,2.17
2022-11-27T10:32:52.878Z,2.53
2022-11-27T10:35:27.198Z,2.45
2022-11-27T10:38:17.687Z,2.42
2022-11-27T10:41:05.059Z,2.70
2022-11-27T10:43:55.463Z,2.63
2022-11-27T10:46:42.933Z,2.58
2022-11-27T10:49:30.674Z,2.10
2022-11-27T10:52:19.900Z,2.50
2022-11-27T10:55:13.055Z,2.60
2022-11-27T10:58:09.381Z,2.38
2022-11-27T11:01:07.882Z,2.92
2022-11-27T11:04:31.171Z,3.08
2022-11-27T11:07:24.835Z,2.50
2022-11-27T11:10:25.124Z,2.70
2022-11-27T11:13:12.469Z,3.10
2022-11-27T11:16:09.798Z,3.88
2022-11-27T11:19:01.467Z,4.38
2022-11-27T11:21:49.022Z,3.58
2022-11-27T11:24:40.600Z,3.25
2022-11-27T11:27:30.921Z,3.65
2022-11-27T11:30:23.144Z,3.85
2022-11-27T11:33:14.879Z,4.03
2022-11-27T11:36:09.218Z,3.70
2022-11-27T11:38:56.580Z,4.20
2022-11-27T11:41:46.865Z,3.58
2022-11-27T11:44:36.680Z,4.43
2022-11-27T11:47:25.716Z,3.95
2022-11-27T11:50:13.803Z,4.22
2022-11-27T11:53:20.382Z,4.30
2022-11-27T11:56:07.752Z,4.10
2022-11-27T11:59:08.313Z,3.95
2022-11-27T12:02:10.917Z,3.95
2022-11-27T12:05:03.934Z,3.97
2022-11-27T12:08:18.753Z,3.85
2022-11-27T12:11:20.803Z,3.58
2022-11-27T12:14:11.243Z,5.03
2022-11-27T12:17:22.387Z,3.90
2022-11-27T12:20:15.785Z,4.18
2022-11-27T12:23:22.997Z,3.90
2022-11-27T12:26:16.457Z,3.45
2022-11-27T12:29:04.217Z,3.70
2022-11-27T12:31:57.873Z,3.70
2022-11-27T12:34:51.829Z,3.50
2022-11-27T12:37:58.251Z,3.58
2022-11-27T12:40:48.775Z,3.72
2022-11-27T12:43:38.240Z,3.47
2022-11-27T12:54:46.227Z,3.90
2022-11-27T12:57:55.066Z,3.50
2022-11-27T13:00:43.710Z,3.35
2022-11-27T13:03:34.672Z,3.60
2022-11-27T13:06:25.170Z,4.05
2022-11-27T13:09:22.345Z,4.25
2022-11-27T13:12:12.167Z,3.77
2022-11-27T13:15:02.058Z,3.80
2022-11-27T13:17:51.901Z,3.43
2022-11-27T13:20:40.450Z,3.60
2022-11-27T13:23:31.568Z,4.60
2022-11-27T13:26:26.507Z,4.30
2022-11-27T13:29:32.992Z,4.00
2022-11-27T13:32:22.751Z,4.53
2022-11-27T13:35:22.215Z,4.10
2022-11-27T13:38:09.564Z,4.97
2022-11-27T13:40:58.037Z,4.37
2022-11-27T13:43:46.033Z,4.60
2022-11-27T13:46:44.143Z,4.73
2022-11-27T13:49:32.749Z,5.17
2022-11-27T13:52:22.410Z,4.10
2022-11-27T13:55:09.876Z,4.27
2022-11-27T13:57:59.177Z,4.33
2022-11-27T14:00:46.614Z,5.00
2022-11-27T14:03:36.529Z,4.83
2022-11-27T14:06:26.233Z,5.17
2022-11-27T14:09:13.629Z,4.70
2022-11-27T14:12:01.183Z,5.30
2022-11-27T14:15:17.905Z,6.67
2022-11-27T14:18:16.001Z,4.67
2022-11-27T14:21:05.582Z,5.90
2022-11-27T14:23:53.716Z,6.10
2022-11-27T14:26:42.238Z,6.80
2022-11-27T14:29:30.049Z,6.13
2022-11-27T14:32:19.061Z,5.57
2022-11-27T14:35:19.838Z,6.20
2022-11-27T14:38:11.556Z,6.37
2022-11-27T14:41:12.208Z,5.33
2022-11-27T14:44:03.545Z,7.80
2022-11-27T14:46:52.192Z,6.83
2022-11-27T14:49:42.633Z,7.47
2022-11-27T14:52:33.190Z,7.10
2022-11-27T14:55:21.275Z,7.17
2022-11-27T14:58:12.866Z,6.80
2022-11-27T15:01:02.131Z,6.70
2022-11-27T15:03:56.872Z,6.67
2022-11-27T15:06:45.736Z,7.03
2022-11-27T15:09:35.240Z,7.40
2022-11-27T15:12:30.145Z,7.77
2022-11-27T15:15:22.463Z,7.43
2022-11-27T15:18:10.277Z,7.40
2022-11-27T15:20:58.596Z,7.93
2022-11-27T15:23:46.856Z,7.87
2022-11-27T15:26:36.921Z,7.30
2022-11-27T15:29:36.760Z,8.57
2022-11-27T15:32:25.814Z,7.37
2022-11-27T15:35:14.367Z,8.23
2022-11-27T15:38:09.840Z,7.93
2022-11-27T15:41:00.996Z,8.03
2022-11-27T15:44:03.996Z,8.00
2022-11-27T15:46:52.257Z,7.57
2022-11-27T15:49:46.465Z,7.50
2022-11-27T15:52:35.062Z,8.33
2022-11-27T15:55:23.679Z,7.73
2022-11-27T15:58:11.108Z,7.17
2022-11-27T16:00:58.557Z,7.40
2022-11-27T16:03:46.955Z,8.43
2022-11-27T16:06:54.061Z,7.90
2022-11-27T16:09:53.826Z,8.17
2022-11-27T16:13:20.083Z,8.03
2022-11-27T16:16:09.077Z,6.77
2022-11-27T16:18:59.018Z,6.60
2022-11-27T16:24:30.022Z,7.03
2022-11-27T16:27:17.580Z,7.17
2022-11-27T16:30:05.525Z,7.00
2022-11-27T16:32:53.448Z,7.77
2022-11-27T16:35:40.815Z,7.83
2022-11-27T16:38:28.087Z,7.80
2022-11-27T16:41:16.869Z,8.07
2022-11-27T16:44:14.172Z,7.47
2022-11-27T16:47:02.656Z,8.47
2022-11-27T16:49:49.981Z,8.03
2022-11-27T16:52:37.499Z,9.07
2022-11-27T16:55:25.096Z,8.10
2022-11-27T16:58:12.375Z,7.67
2022-11-27T17:01:03.077Z,7.67
2022-11-27T17:03:51.039Z,8.30
2022-11-27T17:06:39.713Z,8.47
2022-11-27T17:09:29.332Z,8.33
2022-11-27T17:12:16.731Z,7.40
2022-11-27T17:15:04.979Z,8.63
2022-11-27T17:17:57.490Z,24.63
2022-11-27T17:20:45.446Z,14.13
2022-11-27T17:23:33.246Z,8.50
2022-11-27T17:26:21.760Z,7.40
2022-11-27T17:29:10.623Z,7.57
2022-11-27T17:31:57.981Z,7.77
2022-11-27T17:34:46.014Z,7.10
2022-11-27T17:37:33.936Z,7.33
2022-11-27T17:40:21.352Z,7.77
2022-11-27T17:43:08.838Z,7.43
2022-11-27T17:45:56.999Z,7.90
2022-11-27T17:48:44.973Z,7.97
2022-11-27T17:51:33.101Z,8.47
2022-11-27T17:54:20.819Z,8.63
2022-11-27T17:57:08.028Z,8.27
2022-11-27T17:59:55.881Z,8.17
2022-11-27T18:02:43.894Z,8.00
2022-11-27T18:05:31.969Z,8.33
2022-11-27T18:08:19.921Z,8.67
2022-11-27T18:11:13.080Z,7.87
2022-11-27T18:14:00.611Z,7.73
2022-11-27T18:16:48.508Z,8.10
2022-11-27T18:19:35.965Z,8.70
2022-11-27T18:22:23.969Z,7.63
2022-11-27T18:25:11.377Z,8.80
2022-11-27T18:27:58.932Z,8.17
2022-11-27T18:30:46.148Z,11.13
2022-11-27T18:33:34.053Z,9.63
2022-11-27T18:36:21.442Z,8.53
2022-11-27T18:39:09.640Z,8.37
2022-11-27T18:41:57.360Z,8.43
2022-11-27T18:44:45.544Z,9.00
2022-11-27T18:47:33.522Z,8.07
2022-11-27T18:50:26.808Z,8.97
2022-11-27T18:53:17.293Z,9.07
2022-11-27T18:56:06.569Z,8.53
2022-11-27T18:58:54.398Z,8.30
2022-11-27T19:01:44.547Z,7.80
2022-11-27T19:04:31.865Z,8.97
2022-11-27T19:07:19.443Z,9.30
2022-11-27T19:10:07.339Z,8.63
2022-11-27T19:12:54.653Z,8.60
2022-11-27T19:15:42.093Z,7.87
2022-11-27T19:18:29.430Z,7.83
2022-11-27T19:21:19.183Z,8.07
2022-11-27T19:24:07.353Z,7.63
2022-11-27T19:26:55.281Z,9.43
2022-11-27T19:29:43.532Z,9.67
2022-11-27T19:32:30.969Z,9.47
2022-11-27T19:35:22.087Z,10.13
2022-11-27T19:38:09.406Z,9.93
2022-11-27T19:40:56.866Z,8.70
2022-11-27T19:43:44.780Z,8.40
2022-11-27T19:46:33.762Z,8.73
2022-11-27T19:49:21.839Z,9.13
2022-11-27T19:52:09.302Z,9.30
2022-11-27T19:54:56.784Z,8.37
2022-11-27T19:57:44.223Z,9.27
2022-11-27T20:00:32.018Z,8.97
2022-11-27T20:03:19.384Z,10.03
2022-11-27T20:06:08.369Z,9.73
2022-11-27T20:08:59.644Z,8.77
2022-11-27T20:11:47.121Z,9.77
2022-11-27T20:14:34.562Z,9.70
2022-11-27T20:17:21.986Z,10.33
2022-11-27T20:20:10.033Z,10.67
2022-11-27T20:22:57.334Z,10.77
2022-11-27T20:25:44.691Z,9.17
2022-11-27T20:28:32.436Z,10.37
2022-11-27T20:31:24.353Z,11.23
2022-11-27T20:34:15.575Z,11.43
2022-11-27T20:37:02.933Z,11.00
2022-11-27T20:39:50.382Z,9.73
2022-11-27T20:42:38.449Z,9.93
2022-11-27T20:45:26.030Z,9.90
2022-11-27T20:48:13.830Z,10.70
2022-11-27T20:51:09.207Z,10.43
2022-11-27T20:53:57.532Z,10.33
2022-11-27T20:56:46.822Z,9.60
2022-11-27T20:59:34.141Z,10.17
2022-11-27T21:02:21.627Z,10.37
2022-11-27T21:05:10.133Z,10.80
2022-11-27T21:07:57.641Z,10.20
2022-11-27T21:10:45.138Z,9.73
2022-11-27T21:13:32.549Z,10.70
2022-11-27T21:16:20.083Z,10.27
2022-11-27T21:19:08.550Z,11.03
2022-11-27T21:21:56.556Z,10.20
2022-11-27T21:24:43.857Z,10.53
2022-11-27T21:27:31.733Z,10.00
2022-11-27T21:30:19.092Z,10.03
2022-11-27T21:33:06.885Z,10.20
2022-11-27T21:35:57.709Z,9.53
2022-11-27T21:38:45.029Z,9.47
2022-11-27T21:41:32.869Z,9.67
2022-11-27T21:44:20.648Z,8.90
2022-11-27T21:47:11.918Z,9.37
2022-11-27T21:49:59.784Z,9.33
2022-11-27T21:52:47.084Z,10.13
2022-11-27T21:55:34.373Z,10.07
2022-11-27T21:58:21.801Z,10.20
2022-11-27T22:01:13.808Z,9.80
2022-11-27T22:04:01.769Z,9.70
2022-11-27T22:06:49.258Z,9.37
2022-11-27T22:09:36.567Z,10.43
2022-11-27T22:12:24.531Z,10.00
2022-11-27T22:15:12.500Z,10.17
2022-11-27T22:17:59.838Z,11.47
2022-11-27T22:20:47.532Z,22.17
2022-11-27T22:23:35.309Z,11.50
2022-11-27T22:26:24.226Z,10.20
2022-11-27T22:29:11.521Z,10.07
2022-11-27T22:31:59.342Z,9.03
2022-11-27T22:34:46.943Z,10.27
2022-11-27T22:37:35.266Z,10.27
2022-11-27T22:40:24.092Z,9.60
2022-11-27T22:43:11.339Z,8.30
2022-11-27T22:45:59.279Z,9.57
2022-11-27T22:48:47.549Z,8.77
2022-11-27T22:51:36.229Z,9.23
2022-11-27T22:54:24.910Z,9.07
2022-11-27T22:57:14.446Z,8.67
2022-11-27T23:00:01.755Z,9.73
2022-11-27T23:02:49.222Z,9.20
2022-11-27T23:05:36.971Z,9.57
2022-11-27T23:08:24.382Z,9.97
2022-11-27T23:11:14.989Z,10.00
2022-11-27T23:14:03.352Z,9.30
2022-11-27T23:16:51.395Z,9.83
2022-11-27T23:19:38.645Z,9.97
2022-11-27T23:22:26.525Z,8.77
2022-11-27T23:25:14.305Z,9.53
2022-11-27T23:28:01.741Z,9.53
2022-11-27T23:31:08.508Z,8.60
2022-11-27T23:33:56.878Z,9.10
2022-11-27T23:36:44.893Z,8.97
2022-11-27T23:39:32.695Z,9.70
2022-11-27T23:42:20.010Z,8.43
2022-11-27T23:45:07.980Z,8.00
2022-11-27T23:47:55.251Z,7.30
2022-11-27T23:50:43.823Z,8.23
2022-11-27T23:53:31.502Z,8.37
2022-11-27T23:56:20.790Z,8.20
2022-11-27T23:59:08.633Z,8.20
